sensor_id;sensor_type;location;lat;lon;timestamp;pressure;altitude;pressure_sealevel;temperature;humidity
80116;BME280;69423;47.608;19.366;2023-05-10T00:00:25;99209.72;;;10.15;66.78
80116;BME280;69423;47.608;19.366;2023-05-10T00:00:56;99207.41;;;10.11;66.55
80116;BME280;69423;47.608;19.366;2023-05-10T00:01:27;99209.41;;;10.09;66.61
80116;BME280;69423;47.608;19.366;2023-05-10T00:01:58;99205.25;;;10.07;67.04
80116;BME280;69423;47.608;19.366;2023-05-10T00:02:29;99206.91;;;10.08;66.81
80116;BME280;69423;47.608;19.366;2023-05-10T00:03:00;99204.56;;;10.13;66.67
80116;BME280;69423;47.608;19.366;2023-05-10T00:03:31;99201.91;;;10.13;67.21
80116;BME280;69423;47.608;19.366;2023-05-10T00:04:02;99197.22;;;10.15;67.03
80116;BME280;69423;47.608;19.366;2023-05-10T00:04:33;99194.56;;;10.15;67.00
80116;BME280;69423;47.608;19.366;2023-05-10T00:05:04;99200.03;;;10.22;66.60
80116;BME280;69423;47.608;19.366;2023-05-10T00:05:35;99200.56;;;10.17;67.18
80116;BME280;69423;47.608;19.366;2023-05-10T00:06:06;99202.56;;;10.15;66.70
80116;BME280;69423;47.608;19.366;2023-05-10T00:06:37;99205.38;;;10.13;67.11
80116;BME280;69423;47.608;19.366;2023-05-10T00:07:08;99204.72;;;10.11;66.86
80116;BME280;69423;47.608;19.366;2023-05-10T00:07:39;99205.56;;;10.12;67.36
80116;BME280;69423;47.608;19.366;2023-05-10T00:08:10;99208.75;;;10.07;67.65
80116;BME280;69423;47.608;19.366;2023-05-10T00:08:41;99205.75;;;10.10;67.67
80116;BME280;69423;47.608;19.366;2023-05-10T00:09:12;99203.59;;;10.06;68.00
80116;BME280;69423;47.608;19.366;2023-05-10T00:09:43;99199.94;;;10.07;67.83
80116;BME280;69423;47.608;19.366;2023-05-10T00:10:14;99198.44;;;10.04;68.03
80116;BME280;69423;47.608;19.366;2023-05-10T00:10:45;99198.44;;;10.04;67.78
80116;BME280;69423;47.608;19.366;2023-05-10T00:11:16;99201.78;;;10.06;68.03
80116;BME280;69423;47.608;19.366;2023-05-10T00:11:46;99197.59;;;10.04;67.88
80116;BME280;69423;47.608;19.366;2023-05-10T00:12:17;99201.94;;;10.05;68.33
80116;BME280;69423;47.608;19.366;2023-05-10T00:12:48;99198.25;;;10.06;68.10
80116;BME280;69423;47.608;19.366;2023-05-10T00:13:19;99199.28;;;10.05;68.01
80116;BME280;69423;47.608;19.366;2023-05-10T00:13:50;99207.97;;;9.99;68.23
80116;BME280;69423;47.608;19.366;2023-05-10T00:14:21;99198.94;;;10.00;68.47
80116;BME280;69423;47.608;19.366;2023-05-10T00:14:51;99198.63;;;10.03;68.22
80116;BME280;69423;47.608;19.366;2023-05-10T00:15:22;99200.63;;;10.01;68.34
80116;BME280;69423;47.608;19.366;2023-05-10T00:15:53;99196.13;;;10.01;68.61
80116;BME280;69423;47.608;19.366;2023-05-10T00:16:24;99196.78;;;10.03;68.59
80116;BME280;69423;47.608;19.366;2023-05-10T00:16:55;99197.44;;;10.05;68.34
80116;BME280;69423;47.608;19.366;2023-05-10T00:17:26;99192.94;;;10.06;68.68
80116;BME280;69423;47.608;19.366;2023-05-10T00:17:57;99192.94;;;10.06;68.66
80116;BME280;69423;47.608;19.366;2023-05-10T00:18:27;99201.44;;;10.01;68.53
80116;BME280;69423;47.608;19.366;2023-05-10T00:18:58;99194.50;;;9.92;68.51
80116;BME280;69423;47.608;19.366;2023-05-10T00:19:29;99198.50;;;9.88;68.71
80116;BME280;69423;47.608;19.366;2023-05-10T00:20:00;99193.00;;;9.89;69.08
80116;BME280;69423;47.608;19.366;2023-05-10T00:20:31;99192.50;;;9.94;69.00
80116;BME280;69423;47.608;19.366;2023-05-10T00:21:02;99190.66;;;9.95;69.02
80116;BME280;69423;47.608;19.366;2023-05-10T00:21:33;99193.47;;;9.93;69.44
80116;BME280;69423;47.608;19.366;2023-05-10T00:22:04;99193.66;;;9.91;69.18
80116;BME280;69423;47.608;19.366;2023-05-10T00:22:35;99195.00;;;9.87;69.38
80116;BME280;69423;47.608;19.366;2023-05-10T00:23:05;99198.03;;;9.84;69.58
80116;BME280;69423;47.608;19.366;2023-05-10T00:23:36;99195.34;;;9.84;69.57
80116;BME280;69423;47.608;19.366;2023-05-10T00:24:08;99185.19;;;9.88;69.50
80116;BME280;69423;47.608;19.366;2023-05-10T00:24:38;99192.53;;;9.86;69.11
80116;BME280;69423;47.608;19.366;2023-05-10T00:25:09;99193.34;;;9.86;69.16
80116;BME280;69423;47.608;19.366;2023-05-10T00:25:41;99188.69;;;9.88;69.25
80116;BME280;69423;47.608;19.366;2023-05-10T00:26:12;99198.69;;;9.86;69.01
80116;BME280;69423;47.608;19.366;2023-05-10T00:26:42;99193.34;;;9.86;69.36
80116;BME280;69423;47.608;19.366;2023-05-10T00:27:13;99198.84;;;9.85;69.57
80116;BME280;69423;47.608;19.366;2023-05-10T00:27:44;99190.19;;;9.83;69.67
80116;BME280;69423;47.608;19.366;2023-05-10T00:28:15;99196.00;;;9.86;69.28
80116;BME280;69423;47.608;19.366;2023-05-10T00:28:46;99193.34;;;9.86;69.36
80116;BME280;69423;47.608;19.366;2023-05-10T00:29:17;99194.53;;;9.84;69.33
80116;BME280;69423;47.608;19.366;2023-05-10T00:29:48;99192.84;;;9.83;69.20
80116;BME280;69423;47.608;19.366;2023-05-10T00:30:19;99192.53;;;9.86;69.31
80116;BME280;69423;47.608;19.366;2023-05-10T00:30:50;99189.50;;;9.89;69.40
80116;BME280;69423;47.608;19.366;2023-05-10T00:31:20;99191.84;;;9.92;69.48
80116;BME280;69423;47.608;19.366;2023-05-10T00:31:51;99190.00;;;9.92;69.38
80116;BME280;69423;47.608;19.366;2023-05-10T00:32:22;99184.00;;;9.90;69.19
80116;BME280;69423;47.608;19.366;2023-05-10T00:32:53;99192.00;;;9.90;69.06
80116;BME280;69423;47.608;19.366;2023-05-10T00:33:24;99196.50;;;9.90;68.81
80116;BME280;69423;47.608;19.366;2023-05-10T00:33:55;99190.66;;;9.95;69.35
80116;BME280;69423;47.608;19.366;2023-05-10T00:34:26;99191.84;;;9.92;69.02
80116;BME280;69423;47.608;19.366;2023-05-10T00:34:57;99190.31;;;9.89;69.26
80116;BME280;69423;47.608;19.366;2023-05-10T00:35:28;99184.00;;;9.90;69.29
80116;BME280;69423;47.608;19.366;2023-05-10T00:35:59;99184.50;;;9.94;69.31
80116;BME280;69423;47.608;19.366;2023-05-10T00:36:30;99183.66;;;9.93;69.11
80116;BME280;69423;47.608;19.366;2023-05-10T00:37:01;99195.97;;;9.95;69.50
80116;BME280;69423;47.608;19.366;2023-05-10T00:37:33;99191.47;;;9.95;69.13
80116;BME280;69423;47.608;19.366;2023-05-10T00:38:04;99191.47;;;9.95;69.67
80116;BME280;69423;47.608;19.366;2023-05-10T00:38:35;99182.50;;;9.96;69.46
80116;BME280;69423;47.608;19.366;2023-05-10T00:39:05;99180.66;;;9.97;69.59
80116;BME280;69423;47.608;19.366;2023-05-10T00:39:36;99189.47;;;9.97;69.10
80116;BME280;69423;47.608;19.366;2023-05-10T00:40:08;99184.50;;;9.94;69.14
80116;BME280;69423;47.608;19.366;2023-05-10T00:40:39;99186.03;;;9.88;69.46
80116;BME280;69423;47.608;19.366;2023-05-10T00:41:09;99184.66;;;9.92;69.11
80116;BME280;69423;47.608;19.366;2023-05-10T00:41:40;99187.16;;;9.94;69.12
80116;BME280;69423;47.608;19.366;2023-05-10T00:42:11;99189.34;;;9.90;69.04
80116;BME280;69423;47.608;19.366;2023-05-10T00:42:42;99187.00;;;9.87;69.12
80116;BME280;69423;47.608;19.366;2023-05-10T00:43:13;99184.84;;;9.91;68.98
80116;BME280;69423;47.608;19.366;2023-05-10T00:43:44;99183.66;;;9.93;69.42
80116;BME280;69423;47.608;19.366;2023-05-10T00:44:15;99184.66;;;9.92;69.22
80116;BME280;69423;47.608;19.366;2023-05-10T00:44:45;99185.50;;;9.93;69.30
80116;BME280;69423;47.608;19.366;2023-05-10T00:45:17;99187.34;;;9.92;69.40
80116;BME280;69423;47.608;19.366;2023-05-10T00:45:48;99180.34;;;9.91;69.48
80116;BME280;69423;47.608;19.366;2023-05-10T00:46:20;99183.66;;;9.93;69.46
80116;BME280;69423;47.608;19.366;2023-05-10T00:46:52;99185.66;;;9.91;69.44
80116;BME280;69423;47.608;19.366;2023-05-10T00:47:23;99186.31;;;9.93;69.61
80116;BME280;69423;47.608;19.366;2023-05-10T00:47:54;99188.00;;;9.95;69.45
80116;BME280;69423;47.608;19.366;2023-05-10T00:48:26;99180.00;;;9.95;68.90
80116;BME280;69423;47.608;19.366;2023-05-10T00:48:59;99190.00;;;9.92;68.54
80116;BME280;69423;47.608;19.366;2023-05-10T00:49:30;99176.69;;;9.92;69.23
80116;BME280;69423;47.608;19.366;2023-05-10T00:50:02;99181.19;;;9.92;69.75
80116;BME280;69423;47.608;19.366;2023-05-10T00:50:33;99186.97;;;9.96;69.89
80116;BME280;69423;47.608;19.366;2023-05-10T00:51:04;99181.66;;;9.96;69.27
80116;BME280;69423;47.608;19.366;2023-05-10T00:51:35;99175.50;;;9.95;68.63
80116;BME280;69423;47.608;19.366;2023-05-10T00:52:08;99185.34;;;9.95;69.00
80116;BME280;69423;47.608;19.366;2023-05-10T00:52:39;99180.81;;;9.95;68.95
80116;BME280;69423;47.608;19.366;2023-05-10T00:53:10;99183.00;;;9.91;68.78
80116;BME280;69423;47.608;19.366;2023-05-10T00:53:41;99173.69;;;9.87;69.46
80116;BME280;69423;47.608;19.366;2023-05-10T00:54:14;99177.88;;;9.90;69.41
80116;BME280;69423;47.608;19.366;2023-05-10T00:54:46;99179.50;;;9.91;69.27
80116;BME280;69423;47.608;19.366;2023-05-10T00:55:18;99174.84;;;9.93;69.74
80116;BME280;69423;47.608;19.366;2023-05-10T00:55:49;99172.72;;;9.88;69.79
80116;BME280;69423;47.608;19.366;2023-05-10T00:56:20;99182.34;;;9.89;69.41
80116;BME280;69423;47.608;19.366;2023-05-10T00:56:53;99178.53;;;9.92;69.06
80116;BME280;69423;47.608;19.366;2023-05-10T00:57:24;99179.69;;;9.89;68.72
80116;BME280;69423;47.608;19.366;2023-05-10T00:57:55;99184.22;;;9.81;69.10
80116;BME280;69423;47.608;19.366;2023-05-10T00:58:27;99171.41;;;9.76;69.90
80116;BME280;69423;47.608;19.366;2023-05-10T00:58:59;99173.56;;;9.81;69.14
80116;BME280;69423;47.608;19.366;2023-05-10T00:59:30;99180.84;;;9.87;69.96
80116;BME280;69423;47.608;19.366;2023-05-10T01:00:02;99177.38;;;9.86;69.46
80116;BME280;69423;47.608;19.366;2023-05-10T01:00:33;99175.06;;;9.83;69.59
80116;BME280;69423;47.608;19.366;2023-05-10T01:01:05;99174.06;;;9.84;69.91
80116;BME280;69423;47.608;19.366;2023-05-10T01:01:37;99178.03;;;9.88;69.28
80116;BME280;69423;47.608;19.366;2023-05-10T01:02:08;99182.19;;;9.91;69.28
80116;BME280;69423;47.608;19.366;2023-05-10T01:02:40;99176.69;;;9.92;69.37
80116;BME280;69423;47.608;19.366;2023-05-10T01:03:12;99184.50;;;9.94;69.47
80116;BME280;69423;47.608;19.366;2023-05-10T01:03:43;99173.00;;;9.93;69.03
80116;BME280;69423;47.608;19.366;2023-05-10T01:04:14;99180.34;;;9.91;69.46
80116;BME280;69423;47.608;19.366;2023-05-10T01:04:45;99174.72;;;9.86;69.76
80116;BME280;69423;47.608;19.366;2023-05-10T01:05:16;99170.03;;;9.88;70.16
80116;BME280;69423;47.608;19.366;2023-05-10T01:05:47;99177.34;;;9.95;69.88
80116;BME280;69423;47.608;19.366;2023-05-10T01:06:18;99178.00;;;9.97;69.14
80116;BME280;69423;47.608;19.366;2023-05-10T01:06:49;99180.00;;;9.95;69.01
80116;BME280;69423;47.608;19.366;2023-05-10T01:07:20;99176.31;;;9.96;69.49
80116;BME280;69423;47.608;19.366;2023-05-10T01:07:51;99174.69;;;9.95;69.69
80116;BME280;69423;47.608;19.366;2023-05-10T01:08:22;99178.16;;;9.95;69.94
80116;BME280;69423;47.608;19.366;2023-05-10T01:08:53;99170.16;;;9.95;68.95
80116;BME280;69423;47.608;19.366;2023-05-10T01:09:24;99179.50;;;9.91;69.72
80116;BME280;69423;47.608;19.366;2023-05-10T01:09:57;99168.53;;;9.94;70.14
80116;BME280;69423;47.608;19.366;2023-05-10T01:10:29;99176.31;;;9.96;69.88
80116;BME280;69423;47.608;19.366;2023-05-10T01:11:00;99174.03;;;9.92;70.00
80116;BME280;69423;47.608;19.366;2023-05-10T01:11:31;99178.97;;;9.96;69.71
80116;BME280;69423;47.608;19.366;2023-05-10T01:12:02;99173.19;;;9.92;69.55
80116;BME280;69423;47.608;19.366;2023-05-10T01:12:37;99171.22;;;9.86;69.83
80116;BME280;69423;47.608;19.366;2023-05-10T01:13:09;99181.03;;;9.85;70.35
80116;BME280;69423;47.608;19.366;2023-05-10T01:13:42;99175.38;;;9.88;69.60
80116;BME280;69423;47.608;19.366;2023-05-10T01:14:14;99181.19;;;9.92;69.81
80116;BME280;69423;47.608;19.366;2023-05-10T01:14:47;99178.69;;;9.90;69.49
80116;BME280;69423;47.608;19.366;2023-05-10T01:15:20;99177.00;;;9.89;69.27
80116;BME280;69423;47.608;19.366;2023-05-10T01:15:52;99173.88;;;9.86;69.41
80116;BME280;69423;47.608;19.366;2023-05-10T01:16:24;99172.03;;;9.86;69.20
80116;BME280;69423;47.608;19.366;2023-05-10T01:16:56;99165.03;;;9.85;69.63
80116;BME280;69423;47.608;19.366;2023-05-10T01:17:27;99169.69;;;9.91;69.38
80116;BME280;69423;47.608;19.366;2023-05-10T01:17:59;99179.19;;;9.94;69.40
80116;BME280;69423;47.608;19.366;2023-05-10T01:18:33;99174.50;;;9.96;69.56
80116;BME280;69423;47.608;19.366;2023-05-10T01:19:19;99178.81;;;9.97;69.49
80116;BME280;69423;47.608;19.366;2023-05-10T01:19:50;99182.97;;;10.00;69.32
80116;BME280;69423;47.608;19.366;2023-05-10T01:20:22;99180.81;;;9.95;69.56
80116;BME280;69423;47.608;19.366;2023-05-10T01:22:35;99177.00;;;9.89;69.76
80116;BME280;69423;47.608;19.366;2023-05-10T01:27:56;99175.63;;;10.02;69.80
80116;BME280;69423;47.608;19.366;2023-05-10T01:33:29;99161.81;;;10.06;70.33
80116;BME280;69423;47.608;19.366;2023-05-10T01:34:07;99156.94;;;10.10;70.27
80116;BME280;69423;47.608;19.366;2023-05-10T01:35:01;99167.25;;;10.13;69.86
80116;BME280;69423;47.608;19.366;2023-05-10T01:35:40;99162.28;;;10.10;69.75
80116;BME280;69423;47.608;19.366;2023-05-10T01:37:06;99161.78;;;10.15;69.64
80116;BME280;69423;47.608;19.366;2023-05-10T01:37:50;99159.09;;;10.15;69.62
80116;BME280;69423;47.608;19.366;2023-05-10T01:38:45;99159.56;;;10.18;70.26
80116;BME280;69423;47.608;19.366;2023-05-10T01:42:05;99156.28;;;10.08;70.76
80116;BME280;69423;47.608;19.366;2023-05-10T01:42:47;99157.78;;;10.10;70.83
80116;BME280;69423;47.608;19.366;2023-05-10T01:43:24;99156.94;;;10.10;71.18
80116;BME280;69423;47.608;19.366;2023-05-10T01:44:20;99157.97;;;10.09;70.70
80116;BME280;69423;47.608;19.366;2023-05-10T01:45:02;99161.28;;;10.11;71.04
80116;BME280;69423;47.608;19.366;2023-05-10T01:46:05;99151.81;;;10.08;70.79
80116;BME280;69423;47.608;19.366;2023-05-10T01:46:41;99165.94;;;10.09;70.91
80116;BME280;69423;47.608;19.366;2023-05-10T01:47:38;99156.25;;;10.16;70.47
80116;BME280;69423;47.608;19.366;2023-05-10T01:48:11;99159.22;;;10.21;70.31
80116;BME280;69423;47.608;19.366;2023-05-10T01:48:56;99161.22;;;10.19;70.16
80116;BME280;69423;47.608;19.366;2023-05-10T01:49:31;99153.91;;;10.21;70.16
80116;BME280;69423;47.608;19.366;2023-05-10T01:50:10;99156.56;;;10.21;70.24
80116;BME280;69423;47.608;19.366;2023-05-10T01:50:46;99158.91;;;10.16;70.78
80116;BME280;69423;47.608;19.366;2023-05-10T01:51:27;99158.25;;;10.14;71.46
80116;BME280;69423;47.608;19.366;2023-05-10T01:52:06;99154.59;;;10.15;71.37
80116;BME280;69423;47.608;19.366;2023-05-10T01:52:42;99151.94;;;10.15;71.24
80116;BME280;69423;47.608;19.366;2023-05-10T01:53:18;99152.22;;;10.20;71.76
80116;BME280;69423;47.608;19.366;2023-05-10T01:53:51;99156.19;;;10.24;71.32
80116;BME280;69423;47.608;19.366;2023-05-10T01:54:24;99161.22;;;10.19;71.32
80116;BME280;69423;47.608;19.366;2023-05-10T01:55:01;99158.44;;;10.12;71.97
80116;BME280;69423;47.608;19.366;2023-05-10T01:55:35;99156.25;;;10.16;72.25
80116;BME280;69423;47.608;19.366;2023-05-10T01:56:11;99151.03;;;10.23;72.79
80116;BME280;69423;47.608;19.366;2023-05-10T01:56:47;99157.66;;;10.27;71.72
80116;BME280;69423;47.608;19.366;2023-05-10T01:57:26;99158.19;;;10.30;71.54
80116;BME280;69423;47.608;19.366;2023-05-10T01:58:23;99153.38;;;10.26;72.40
80116;BME280;69423;47.608;19.366;2023-05-10T01:58:56;99156.38;;;10.23;72.25
80116;BME280;69423;47.608;19.366;2023-05-10T01:59:31;99155.53;;;10.22;72.22
80116;BME280;69423;47.608;19.366;2023-05-10T02:00:07;99158.38;;;10.21;72.37
80116;BME280;69423;47.608;19.366;2023-05-10T02:00:47;99150.56;;;10.19;72.58
80116;BME280;69423;47.608;19.366;2023-05-10T02:01:21;99154.88;;;10.20;72.95
80116;BME280;69423;47.608;19.366;2023-05-10T02:01:53;99163.03;;;10.19;72.82
80116;BME280;69423;47.608;19.366;2023-05-10T02:02:25;99154.88;;;10.20;72.52
80116;BME280;69423;47.608;19.366;2023-05-10T02:03:00;99153.38;;;10.26;71.98
80116;BME280;69423;47.608;19.366;2023-05-10T02:03:35;99155.53;;;10.22;72.33
80116;BME280;69423;47.608;19.366;2023-05-10T02:04:09;99158.19;;;10.22;72.35
80116;BME280;69423;47.608;19.366;2023-05-10T02:04:42;99155.53;;;10.22;72.60
80116;BME280;69423;47.608;19.366;2023-05-10T02:05:16;99160.03;;;10.22;73.06
80116;BME280;69423;47.608;19.366;2023-05-10T02:05:50;99146.88;;;10.20;73.36
80116;BME280;69423;47.608;19.366;2023-05-10T02:06:24;99154.22;;;10.18;73.28
80116;BME280;69423;47.608;19.366;2023-05-10T02:06:57;99159.22;;;10.21;73.38
80116;BME280;69423;47.608;19.366;2023-05-10T02:07:28;99158.88;;;10.24;73.31
80116;BME280;69423;47.608;19.366;2023-05-10T02:08:00;99157.22;;;10.23;73.64
80116;BME280;69423;47.608;19.366;2023-05-10T02:08:35;99158.03;;;10.24;73.70
80116;BME280;69423;47.608;19.366;2023-05-10T02:09:09;99159.88;;;10.23;73.73
80116;BME280;69423;47.608;19.366;2023-05-10T02:09:44;99153.03;;;10.21;74.02
80116;BME280;69423;47.608;19.366;2023-05-10T02:10:19;99153.03;;;10.21;74.15
80116;BME280;69423;47.608;19.366;2023-05-10T02:10:53;99152.22;;;10.20;74.31
80116;BME280;69423;47.608;19.366;2023-05-10T02:11:27;99158.19;;;10.22;73.95
80116;BME280;69423;47.608;19.366;2023-05-10T02:12:01;99154.88;;;10.20;74.06
80116;BME280;69423;47.608;19.366;2023-05-10T02:12:39;99159.22;;;10.21;74.58
80116;BME280;69423;47.608;19.366;2023-05-10T02:13:12;99150.88;;;10.24;73.93
80116;BME280;69423;47.608;19.366;2023-05-10T02:13:47;99154.34;;;10.25;74.37
80116;BME280;69423;47.608;19.366;2023-05-10T02:14:19;99160.03;;;10.22;74.12
80116;BME280;69423;47.608;19.366;2023-05-10T02:14:52;99162.22;;;10.18;74.59
80116;BME280;69423;47.608;19.366;2023-05-10T02:15:25;99159.16;;;10.06;73.26
80116;BME280;69423;47.608;19.366;2023-05-10T02:15:57;99153.63;;;10.08;73.79
80116;BME280;69423;47.608;19.366;2023-05-10T02:16:29;99159.81;;;10.08;73.11
80116;BME280;69423;47.608;19.366;2023-05-10T02:17:04;99154.09;;;10.11;72.69
80116;BME280;69423;47.608;19.366;2023-05-10T02:17:37;99154.94;;;10.12;73.06
80116;BME280;69423;47.608;19.366;2023-05-10T02:18:09;99157.78;;;10.10;72.79
80116;BME280;69423;47.608;19.366;2023-05-10T02:18:41;99157.44;;;10.13;72.67
80116;BME280;69423;47.608;19.366;2023-05-10T02:19:13;99163.56;;;10.14;72.08
80116;BME280;69423;47.608;19.366;2023-05-10T02:19:47;99155.81;;;10.04;72.01
80116;BME280;69423;47.608;19.366;2023-05-10T02:20:19;99145.34;;;10.03;72.28
80116;BME280;69423;47.608;19.366;2023-05-10T02:20:53;99151.19;;;9.98;72.66
80116;BME280;69423;47.608;19.366;2023-05-10T02:21:28;99151.00;;;10.00;72.25
80116;BME280;69423;47.608;19.366;2023-05-10T02:22:00;99148.88;;;9.95;72.54
80116;BME280;69423;47.608;19.366;2023-05-10T02:22:33;99150.88;;;9.93;72.66
80116;BME280;69423;47.608;19.366;2023-05-10T02:23:07;99149.38;;;9.90;73.00
80116;BME280;69423;47.608;19.366;2023-05-10T02:23:39;99149.38;;;9.90;72.49
80116;BME280;69423;47.608;19.366;2023-05-10T02:24:11;99150.38;;;9.89;72.87
80116;BME280;69423;47.608;19.366;2023-05-10T02:24:44;99150.56;;;9.88;72.85
80116;BME280;69423;47.608;19.366;2023-05-10T02:25:17;99151.09;;;9.83;73.58
80116;BME280;69423;47.608;19.366;2023-05-10T02:25:49;99153.09;;;9.81;73.51
80116;BME280;69423;47.608;19.366;2023-05-10T02:26:23;99159.25;;;9.82;73.57
80116;BME280;69423;47.608;19.366;2023-05-10T02:26:56;99148.25;;;9.85;73.25
80116;BME280;69423;47.608;19.366;2023-05-10T02:27:29;99157.91;;;9.86;73.66
80116;BME280;69423;47.608;19.366;2023-05-10T02:28:03;99160.72;;;9.84;73.54
80116;BME280;69423;47.608;19.366;2023-05-10T02:28:36;99153.09;;;9.81;73.66
80116;BME280;69423;47.608;19.366;2023-05-10T02:29:09;99149.59;;;9.81;74.29
80116;BME280;69423;47.608;19.366;2023-05-10T02:29:43;99153.09;;;9.81;74.19
80116;BME280;69423;47.608;19.366;2023-05-10T02:30:15;99157.56;;;9.81;74.25
80116;BME280;69423;47.608;19.366;2023-05-10T02:30:47;99154.59;;;9.84;74.23
80116;BME280;69423;47.608;19.366;2023-05-10T02:31:19;99157.56;;;9.81;74.59
80116;BME280;69423;47.608;19.366;2023-05-10T02:31:53;99162.91;;;9.81;74.99
80116;BME280;69423;47.608;19.366;2023-05-10T02:32:26;99155.44;;;9.76;74.99
80116;BME280;69423;47.608;19.366;2023-05-10T02:32:58;99153.44;;;9.78;75.78
80116;BME280;69423;47.608;19.366;2023-05-10T02:33:31;99159.59;;;9.79;75.92
80116;BME280;69423;47.608;19.366;2023-05-10T02:34:04;99157.13;;;9.77;76.23
80116;BME280;69423;47.608;19.366;2023-05-10T02:34:37;99157.44;;;9.74;75.81
80116;BME280;69423;47.608;19.366;2023-05-10T02:35:09;99161.94;;;9.73;76.01
80116;BME280;69423;47.608;19.366;2023-05-10T02:35:42;99159.44;;;9.72;76.21
80116;BME280;69423;47.608;19.366;2023-05-10T02:36:13;99156.13;;;9.70;76.53
80116;BME280;69423;47.608;19.366;2023-05-10T02:36:45;99159.44;;;9.72;76.49
80116;BME280;69423;47.608;19.366;2023-05-10T02:37:19;99157.16;;;9.69;76.79
80116;BME280;69423;47.608;19.366;2023-05-10T02:37:52;99155.47;;;9.68;77.34
80116;BME280;69423;47.608;19.366;2023-05-10T02:38:25;99156.94;;;9.70;77.11
80116;BME280;69423;47.608;19.366;2023-05-10T02:38:59;99164.78;;;9.72;77.18
80116;BME280;69423;47.608;19.366;2023-05-10T02:39:33;99153.78;;;9.75;76.59
80116;BME280;69423;47.608;19.366;2023-05-10T02:40:05;99165.94;;;9.78;76.41
80116;BME280;69423;47.608;19.366;2023-05-10T02:40:37;99165.09;;;9.77;76.91
80116;BME280;69423;47.608;19.366;2023-05-10T02:41:10;99152.78;;;9.76;77.82
80116;BME280;69423;47.608;19.366;2023-05-10T02:41:43;99160.28;;;9.72;78.08
80116;BME280;69423;47.608;19.366;2023-05-10T02:42:19;99157.31;;;9.67;78.10
80116;BME280;69423;47.608;19.366;2023-05-10T02:42:54;99161.28;;;9.71;77.79
80116;BME280;69423;47.608;19.366;2023-05-10T02:43:30;99155.47;;;9.68;77.73
80116;BME280;69423;47.608;19.366;2023-05-10T02:44:02;99165.13;;;9.69;77.95
80116;BME280;69423;47.608;19.366;2023-05-10T02:44:37;99159.44;;;9.72;78.53
80116;BME280;69423;47.608;19.366;2023-05-10T02:45:15;99157.44;;;9.74;78.09
80116;BME280;69423;47.608;19.366;2023-05-10T02:45:48;99158.47;;;9.73;77.41
80116;BME280;69423;47.608;19.366;2023-05-10T02:46:19;99164.94;;;9.70;78.57
80116;BME280;69423;47.608;19.366;2023-05-10T02:46:50;99162.47;;;9.69;78.55
80116;BME280;69423;47.608;19.366;2023-05-10T02:47:21;99166.66;;;9.63;78.51
80116;BME280;69423;47.608;19.366;2023-05-10T02:47:52;99164.97;;;9.62;78.75
80116;BME280;69423;47.608;19.366;2023-05-10T02:48:23;99159.84;;;9.61;78.69
80116;BME280;69423;47.608;19.366;2023-05-10T02:48:54;99153.84;;;9.59;78.76
80116;BME280;69423;47.608;19.366;2023-05-10T02:49:25;99160.50;;;9.63;79.26
80116;BME280;69423;47.608;19.366;2023-05-10T02:49:56;99156.16;;;9.62;79.01
80116;BME280;69423;47.608;19.366;2023-05-10T02:50:30;99163.16;;;9.63;78.87
80116;BME280;69423;47.608;19.366;2023-05-10T02:51:05;99160.00;;;9.59;79.19
80116;BME280;69423;47.608;19.366;2023-05-10T02:51:43;99164.00;;;9.55;79.42
80116;BME280;69423;47.608;19.366;2023-05-10T02:52:21;99153.22;;;9.48;79.47
80116;BME280;69423;47.608;19.366;2023-05-10T02:53:01;99158.53;;;9.48;79.75
80116;BME280;69423;47.608;19.366;2023-05-10T02:53:36;99146.56;;;9.44;79.07
80116;BME280;69423;47.608;19.366;2023-05-10T02:54:30;99149.91;;;9.46;79.54
80116;BME280;69423;47.608;19.366;2023-05-10T02:55:04;99161.38;;;9.47;80.43
80116;BME280;69423;47.608;19.366;2023-05-10T02:55:39;99157.22;;;9.44;81.02
80116;BME280;69423;47.608;19.366;2023-05-10T02:56:21;99154.06;;;9.41;81.37
80116;BME280;69423;47.608;19.366;2023-05-10T02:56:57;99154.56;;;9.44;80.72
80116;BME280;69423;47.608;19.366;2023-05-10T02:57:34;99156.41;;;9.44;81.08
80116;BME280;69423;47.608;19.366;2023-05-10T02:58:08;99156.72;;;9.41;81.48
80116;BME280;69423;47.608;19.366;2023-05-10T02:58:39;99158.03;;;9.45;81.48
80116;BME280;69423;47.608;19.366;2023-05-10T02:59:10;99155.91;;;9.40;81.85
80116;BME280;69423;47.608;19.366;2023-05-10T02:59:41;99156.72;;;9.41;81.23
80116;BME280;69423;47.608;19.366;2023-05-10T03:00:16;99164.06;;;9.39;81.38
80116;BME280;69423;47.608;19.366;2023-05-10T03:00:47;99161.22;;;9.40;82.05
80116;BME280;69423;47.608;19.366;2023-05-10T03:01:17;99160.88;;;9.35;82.04
80116;BME280;69423;47.608;19.366;2023-05-10T03:01:48;99163.91;;;9.32;81.33
80116;BME280;69423;47.608;19.366;2023-05-10T03:02:20;99165.09;;;9.29;81.49
80116;BME280;69423;47.608;19.366;2023-05-10T03:02:51;99161.75;;;9.27;81.26
80116;BME280;69423;47.608;19.366;2023-05-10T03:03:22;99163.09;;;9.31;80.76
80116;BME280;69423;47.608;19.366;2023-05-10T03:03:54;99157.75;;;9.31;80.78
80116;BME280;69423;47.608;19.366;2023-05-10T03:04:24;99162.59;;;9.28;80.85
80116;BME280;69423;47.608;19.366;2023-05-10T03:04:55;99160.91;;;9.27;80.90
80116;BME280;69423;47.608;19.366;2023-05-10T03:05:26;99160.09;;;9.26;81.06
80116;BME280;69423;47.608;19.366;2023-05-10T03:05:57;99163.75;;;9.25;80.65
80116;BME280;69423;47.608;19.366;2023-05-10T03:06:29;99157.25;;;9.28;81.04
80116;BME280;69423;47.608;19.366;2023-05-10T03:06:59;99161.91;;;9.26;81.22
80116;BME280;69423;47.608;19.366;2023-05-10T03:07:31;99159.78;;;9.21;81.33
80116;BME280;69423;47.608;19.366;2023-05-10T03:08:03;99160.59;;;9.22;80.93
80116;BME280;69423;47.608;19.366;2023-05-10T03:08:35;99160.44;;;9.23;80.68
80116;BME280;69423;47.608;19.366;2023-05-10T03:09:07;99160.75;;;9.28;80.99
80116;BME280;69423;47.608;19.366;2023-05-10T03:09:40;99159.75;;;9.29;80.53
80116;BME280;69423;47.608;19.366;2023-05-10T03:10:11;99163.91;;;9.32;80.72